Latest Weather Observations for Hillarys Point Boat Harbour

IDW60801

Issued at 12:05 pm WST Monday 21 April 2014 (issued every 30 minutes, with the page automatically refreshed every 10 minutes)

About weather observations | Map of weather stations | Latest weather observations for WA | Other Formats
Station Details ID: 009265 Name: HILLARYS BOAT HARBOUR NTC AWS Lat: -31.83 Lon: 115.74 Height: 0.0 m
Data from the previous 72 hours. | See also: Recent months for locations in Western Australia
Date/Time
WST
Temp
°C
App
Temp
°C
Dew
Point
Rel
Hum
%
Delta-T
°C
Wind Press
QNH
hPa
Press
MSL
hPa
Rain
since 9 am
mm
Dir
 
Spd
km/h
Gust
km/h
Spd
kts
Gust
kts
21/12:00pm - - - - - SSW 11 20 6 11 1018.9 1018.9 -
21/11:30am - - - - - SSW 7 15 4 8 1019.0 - -
21/11:00am - - - - - S 6 15 3 8 1019.4 1019.4 -
21/10:30am - - - - - SSE 4 13 2 7 1019.4 - -
21/10:00am - - - - - SE 7 15 4 8 1019.4 1019.4 -
21/09:30am - - - - - SE 4 19 2 10 1019.4 - -
21/09:00am - - - - - E 6 17 3 9 1019.3 1019.3 -
21/08:30am - - - - - E 6 17 3 9 1019.0 - -
21/08:00am - - - - - E 6 17 3 9 1018.9 1018.9 -
21/07:30am - - - - - ESE 4 15 2 8 1018.4 - -
21/07:00am - - - - - SE 4 13 2 7 1018.2 1018.2 -
21/06:30am - - - - - E 4 9 2 5 1018.0 - -
21/06:00am - - - - - ESE 4 9 2 5 1017.8 1017.8 -
21/05:30am - - - - - SE 4 13 2 7 1017.8 - -
21/05:00am - - - - - SSE 6 13 3 7 1017.6 1017.6 -
21/04:30am 15.1 - - - - SSE 4 11 2 6 1016.9 - -
21/04:00am 15.2 - - - - ESE 2 11 1 6 1016.5 1016.5 -
21/03:30am 15.5 - - - - ESE 2 7 1 4 1016.3 - -
21/03:00am 16.0 - - - - SSE 7 15 4 8 1016.3 1016.3 -
21/02:30am 16.3 - - - - S 9 19 5 10 1016.2 - -
21/02:00am 16.6 - - - - SSE 9 17 5 9 1016.0 1016.0 -
21/01:30am 16.8 - - - - SSE 9 19 5 10 1015.8 - -
21/01:00am 17.3 - - - - S 9 19 5 10 1015.7 1015.7 -
21/12:30am 17.1 - - - - SSE 9 17 5 9 1015.5 - -
21/12:00am 17.7 - - - - SSE 7 17 4 9 1015.4 1015.4 -
 
Date/Time
WST
Temp
°C
App
Temp
°C
Dew
Point
Rel
Hum
%
Delta-T
°C
Wind Press
QNH
hPa
Press
MSL
hPa
Rain
since 9 am
mm
Dir
 
Spd
km/h
Gust
km/h
Spd
kts
Gust
kts
20/11:30pm 18.1 - - - - S 9 19 5 10 1015.2 - -
20/11:00pm 18.6 - - - - S 9 20 5 11 1015.2 1015.2 -
20/10:30pm 18.7 - - - - SSE 7 17 4 9 1015.0 - -
20/10:00pm 19.1 - - - - SSE 9 19 5 10 1014.9 1014.9 -
20/09:30pm 19.4 - - - - S 7 15 4 8 1014.7 - -
20/09:00pm 19.7 - - - - S 9 20 5 11 1014.3 1014.3 -
20/08:30pm 19.9 - - - - S 9 19 5 10 1014.2 - -
20/08:00pm 20.0 - - - - S 7 19 4 10 1013.9 1013.9 -
20/07:30pm 20.2 - - - - S 9 30 5 16 1013.7 - -
20/07:00pm 20.3 - - - - S 9 22 5 12 1013.5 1013.5 -
20/06:30pm 20.4 - - - - S 7 22 4 12 1013.3 - -
20/06:00pm 20.4 - - - - SSW 9 24 5 13 1013.0 1013.0 -
20/05:30pm 20.3 - - - - SSW 13 28 7 15 1012.9 - -
20/05:00pm 20.4 - - - - SSW 13 28 7 15 1012.7 1012.7 -
20/04:30pm 20.5 - - - - SSW 15 30 8 16 1012.7 - -
20/04:00pm 20.5 - - - - SSW 15 30 8 16 1012.6 1012.6 -
20/03:30pm 20.6 - - - - SSW 17 30 9 16 1012.4 - -
20/03:00pm 20.6 - - - - SSW 11 22 6 12 1012.1 1012.1 -
20/02:30pm 20.1 - - - - SSW 15 24 8 13 1012.3 - -
20/02:00pm 20.1 - - - - SW 13 20 7 11 1012.1 1012.1 -
20/01:30pm 20.3 - - - - SW 11 19 6 10 1012.1 - -
20/01:00pm 19.8 - - - - SW 13 19 7 10 1012.5 1012.5 -
20/12:30pm 19.5 - - - - SW 9 17 5 9 1012.8 - -
20/12:00pm 19.7 - - - - SSW 7 15 4 8 1013.4 1013.4 -
20/11:30am 19.4 - - - - SW 9 17 5 9 1013.8 - -
20/11:00am 19.1 - - - - SW 9 15 5 8 1014.2 1014.2 -
20/10:30am 19.0 - - - - SW 7 13 4 7 1014.4 - -
20/10:00am 19.1 - - - - S 6 13 3 7 1014.4 1014.4 -
20/09:30am 18.3 - - - - SSE 4 7 2 4 1014.6 - -
20/09:00am 17.9 - - - - SE 4 11 2 6 1014.8 1014.8 -
20/08:30am 17.0 - - - - SSE 4 7 2 4 1014.9 - -
20/08:00am 16.8 - - - - SSE 4 9 2 5 1014.8 1014.8 -
20/07:30am 16.7 - - - - ESE 2 4 1 2 1014.5 - -
20/07:00am 15.6 - - - - ESE 2 7 1 4 1014.1 1014.1 -
20/06:30am 15.4 - - - - E 2 4 1 2 1013.9 - -
20/06:00am 15.7 - - - - E 2 6 1 3 1014.0 1014.0 -
20/05:30am 16.4 - - - - ESE 2 7 1 4 1014.0 - -
20/05:00am 16.7 - - - - ESE 2 6 1 3 1014.0 1014.0 -
20/04:30am 16.6 - - - - E 2 6 1 3 1013.8 - -
20/04:00am 17.1 - - - - SSE 4 11 2 6 1013.5 1013.5 -
20/03:30am 17.0 - - - - ESE 2 9 1 5 1013.4 - -
20/03:00am 17.1 - - - - SSE 4 11 2 6 1013.5 1013.5 -
20/02:30am 16.9 - - - - SE 2 9 1 5 1013.4 - -
20/02:00am 17.0 - - - - SE 2 11 1 6 1013.5 1013.5 -
20/01:30am 17.3 - - - - ESE 2 9 1 5 1013.6 - -
20/01:00am 17.7 - - - - SE 4 11 2 6 1013.6 1013.6 -
20/12:30am 18.3 - - - - SSE 6 13 3 7 1013.5 - -
20/12:00am 18.9 - - - - SSE 6 11 3 6 1013.6 1013.6 -
 
Date/Time
WST
Temp
°C
App
Temp
°C
Dew
Point
Rel
Hum
%
Delta-T
°C
Wind Press
QNH
hPa
Press
MSL
hPa
Rain
since 9 am
mm
Dir
 
Spd
km/h
Gust
km/h
Spd
kts
Gust
kts
19/11:30pm 19.5 - - - - SSE 7 15 4 8 1013.8 - -
19/11:00pm 19.9 - - - - SSE 6 13 3 7 1014.1 1014.1 -
19/10:30pm 20.1 - - - - SSE 7 13 4 7 1014.3 - -
19/10:00pm 20.7 - - - - S 6 17 3 9 1014.7 1014.7 -
19/09:30pm 21.0 - - - - S 7 17 4 9 1014.5 - -
19/09:00pm 20.8 - - - - S 7 17 4 9 1014.8 1014.8 -
19/08:30pm 20.7 - - - - SSW 11 24 6 13 1014.9 - -
19/08:00pm 20.7 - - - - SSW 9 24 5 13 1014.9 1014.9 -
19/07:30pm 20.7 - - - - S 9 19 5 10 1014.9 - -
19/07:00pm 20.8 - - - - SSW 9 20 5 11 1014.8 1014.8 -
19/06:30pm 20.7 - - - - SSW 13 30 7 16 1014.7 - -
19/06:00pm 20.7 - - - - SSW 13 28 7 15 1014.5 1014.5 -
19/05:30pm 20.7 - - - - SSW 15 28 8 15 1014.4 - -
19/05:00pm 20.9 - - - - SSW 13 26 7 14 1014.1 1014.1 -
19/04:30pm 21.2 - - - - SSW 15 26 8 14 1014.2 - -
19/04:00pm - - - - - SSW 13 22 7 12 1014.1 1014.1 -
19/03:30pm 21.0 - - - - SSW 15 26 8 14 1014.2 - -
19/03:00pm 21.1 - - - - SSW 13 26 7 14 1014.4 1014.4 -
19/02:30pm 21.3 - - - - SSW 13 24 7 13 1014.3 - -
19/02:00pm 20.9 - - - - SSW 13 26 7 14 1014.4 1014.4 -
19/01:30pm 20.8 - - - - SSW 15 24 8 13 1014.6 - -
19/01:00pm 20.6 - - - - SSW 15 24 8 13 1014.9 1014.9 -
19/12:30pm 20.7 - - - - SSW 13 24 7 13 1015.4 - -
19/12:00pm 20.8 - - - - SSW 13 26 7 14 1015.9 1015.9 -
19/11:30am 20.5 - - - - SSW 11 22 6 12 1016.3 - -
19/11:00am 20.5 - - - - SSW 9 19 5 10 1016.8 1016.8 -
19/10:30am 20.2 - - - - S 7 22 4 12 1017.1 - -
19/10:00am 19.9 - - - - SSW 7 22 4 12 1017.4 1017.4 -
19/09:30am 19.4 - - - - S 7 17 4 9 1017.6 - -
19/09:00am 18.4 - - - - S 6 17 3 9 1017.8 1017.8 -
19/08:30am 17.6 - - - - SSE 7 15 4 8 1017.9 - -
19/08:00am 17.0 - - - - SSE 6 11 3 6 1017.5 1017.5 -
19/07:30am 16.4 - - - - SSE 7 15 4 8 1017.3 - -
19/07:00am 16.6 - - - - SSE 7 17 4 9 1017.4 1017.4 -
19/06:30am - - - - - SSE 7 13 4 7 1017.2 - -
19/06:00am - - - - - SSE 7 15 4 8 1017.1 1017.1 -
19/05:30am 16.5 - - - - SSE 6 11 3 6 1017.1 - -
19/05:00am 16.4 - - - - ESE 2 9 1 5 1017.1 1017.1 -
19/04:30am 17.2 - - - - SSE 9 15 5 8 1017.5 - -
19/04:00am 17.4 - - - - SSE 7 11 4 6 1017.1 1017.1 -
19/03:30am 17.8 - - - - SSE 9 15 5 8 1017.0 - -
19/03:00am 18.1 - - - - SSE 7 13 4 7 1017.1 1017.1 -
19/02:30am 18.3 - - - - SSE 7 15 4 8 1017.1 - -
19/02:00am 18.7 - - - - SSE 7 15 4 8 1017.3 1017.3 -
19/01:30am 18.8 - - - - SSE 6 11 3 6 1017.4 - -
19/01:00am 19.3 - - - - SSE 7 15 4 8 1017.5 1017.5 -
19/12:30am 19.9 - - - - S 9 19 5 10 1017.4 - -
19/12:00am 19.9 - - - - S 11 22 6 12 1017.5 1017.5 -
 
Date/Time
WST
Temp
°C
App
Temp
°C
Dew
Point
Rel
Hum
%
Delta-T
°C
Wind Press
QNH
hPa
Press
MSL
hPa
Rain
since 9 am
mm
Dir
 
Spd
km/h
Gust
km/h
Spd
kts
Gust
kts
18/11:30pm 20.2 - - - - S 9 19 5 10 1017.5 - -
18/11:00pm 20.3 - - - - S 7 20 4 11 1017.8 1017.8 -
18/10:30pm 20.4 - - - - S 7 15 4 8 1018.2 - -
18/10:00pm 20.6 - - - - S 7 19 4 10 1018.4 1018.4 -
18/09:30pm 20.8 - - - - S 9 20 5 11 1018.6 - -
18/09:00pm 21.0 - - - - S 7 17 4 9 1018.5 1018.5 -
18/08:30pm 21.3 - - - - S 7 20 4 11 1018.4 - -
18/08:00pm 21.4 - - - - S 7 17 4 9 1018.2 1018.2 -
18/07:30pm 21.4 - - - - S 7 19 4 10 1018.3 - -
18/07:00pm 21.4 - - - - S 7 19 4 10 1018.2 1018.2 -
18/06:30pm 21.3 - - - - S 6 15 3 8 1018.0 - -
18/06:00pm 21.4 - - - - S 6 17 3 9 1017.8 1017.8 -
18/05:30pm 21.4 - - - - SSW 6 15 3 8 1017.6 - -
18/05:00pm 21.5 - - - - SSW 7 19 4 10 1017.6 1017.6 -
18/04:30pm 22.0 - - - - SSW 9 20 5 11 1017.5 - -
18/04:00pm 22.3 - - - - SSW 7 19 4 10 1017.3 1017.3 -
18/03:30pm 22.4 - - - - SSW 11 20 6 11 1017.4 - -
18/03:00pm 22.6 - - - - SSW 13 24 7 13 1017.5 1017.5 -
18/02:30pm - - - - - SSW 11 22 6 12 1017.3 - -
18/02:00pm 24.0 - - - - SW 9 15 5 8 1017.3 1017.3 -
18/01:30pm 24.0 - - - - SW 9 15 5 8 1017.6 - -
18/01:00pm 25.0 - - - - S 6 9 3 5 1018.2 1018.2 -
18/12:30pm 24.8 - - - - ESE 4 9 2 5 1018.6 - -

Other Formats:

Comma delimited format used in spreadsheet applications
http://www.bom.gov.au/fwo/IDW60801/IDW60801.95605.axf

JavaScript Object Notation format (JSON) in row-major order
http://www.bom.gov.au/fwo/IDW60801/IDW60801.95605.json